createdAt,value
2023-05-18T00:02:21.495Z,2.20
2023-05-18T00:04:49.268Z,2.67
2023-05-18T00:07:17.161Z,2.00
2023-05-18T00:09:44.858Z,3.33
2023-05-18T00:12:14.019Z,2.63
2023-05-18T00:14:41.726Z,2.77
2023-05-18T00:17:09.622Z,3.47
2023-05-18T00:19:37.339Z,2.37
2023-05-18T00:22:07.735Z,2.13
2023-05-18T00:24:36.940Z,2.10
2023-05-18T00:27:05.050Z,1.83
2023-05-18T00:29:34.642Z,2.87
2023-05-18T00:32:02.593Z,2.63
2023-05-18T00:34:30.990Z,1.93
2023-05-18T00:36:58.829Z,2.20
2023-05-18T00:39:26.626Z,2.43
2023-05-18T00:41:54.489Z,1.73
2023-05-18T00:44:22.143Z,2.80
2023-05-18T00:46:51.126Z,3.53
2023-05-18T00:49:19.165Z,2.30
2023-05-18T00:51:47.598Z,2.77
2023-05-18T00:54:16.120Z,2.50
2023-05-18T00:56:46.751Z,2.83
2023-05-18T00:59:15.609Z,2.90
2023-05-18T01:01:46.181Z,2.40
2023-05-18T01:04:15.542Z,3.20
2023-05-18T01:06:43.867Z,2.90
2023-05-18T01:09:13.592Z,2.47
2023-05-18T01:11:57.315Z,2.80
2023-05-18T01:14:30.738Z,3.47
2023-05-18T01:17:07.401Z,3.87
2023-05-18T01:20:07.085Z,4.07
2023-05-18T01:22:46.139Z,3.37
2023-05-18T01:25:19.866Z,3.73
2023-05-18T01:27:51.472Z,3.17
2023-05-18T01:30:19.797Z,3.43
2023-05-18T01:32:47.771Z,2.80
2023-05-18T01:35:15.486Z,3.40
2023-05-18T01:37:43.419Z,3.83
2023-05-18T01:40:13.047Z,3.87
2023-05-18T01:42:48.055Z,3.83
2023-05-18T01:45:23.254Z,4.17
2023-05-18T01:47:57.570Z,3.77
2023-05-18T01:50:32.266Z,5.17
2023-05-18T01:53:13.569Z,3.70
2023-05-18T01:55:42.873Z,4.60
2023-05-18T01:58:13.427Z,4.03
2023-05-18T02:00:43.307Z,3.83
2023-05-18T02:03:13.217Z,3.97
2023-05-18T02:05:41.313Z,3.77
2023-05-18T02:08:09.464Z,4.33
2023-05-18T02:10:37.379Z,3.83
2023-05-18T02:13:08.139Z,4.20
2023-05-18T02:15:36.335Z,4.73
2023-05-18T02:18:05.725Z,3.33
2023-05-18T02:20:33.646Z,3.90
2023-05-18T02:23:01.524Z,4.37
2023-05-18T02:25:29.571Z,4.23
2023-05-18T02:27:58.373Z,3.47
2023-05-18T02:30:26.036Z,4.23
2023-05-18T02:32:53.895Z,3.73
2023-05-18T02:35:22.974Z,3.20
2023-05-18T02:37:50.869Z,2.90
2023-05-18T02:40:18.811Z,5.67
2023-05-18T02:42:46.618Z,3.60
2023-05-18T02:45:14.487Z,3.60
2023-05-18T02:47:44.580Z,3.50
2023-05-18T02:50:12.610Z,4.47
2023-05-18T02:52:45.332Z,4.40
2023-05-18T02:55:14.252Z,3.10
2023-05-18T02:57:57.252Z,3.73
2023-05-18T03:00:39.273Z,5.43
2023-05-18T03:03:07.107Z,3.43
2023-05-18T03:05:34.914Z,4.57
2023-05-18T03:08:03.977Z,3.03
2023-05-18T03:10:33.788Z,3.60
2023-05-18T03:13:01.519Z,3.20
2023-05-18T03:15:31.663Z,3.80
2023-05-18T03:18:00.671Z,3.73
2023-05-18T03:20:29.916Z,4.60
2023-05-18T03:22:57.599Z,4.67
2023-05-18T03:25:27.171Z,3.83
2023-05-18T03:27:55.351Z,3.63
2023-05-18T03:30:23.600Z,3.77
2023-05-18T03:32:51.763Z,4.93
2023-05-18T03:35:19.484Z,4.50
2023-05-18T03:37:47.269Z,3.33
2023-05-18T03:40:17.023Z,4.50
2023-05-18T03:42:47.659Z,4.70
2023-05-18T03:45:15.422Z,4.47
2023-05-18T03:47:44.857Z,3.83
2023-05-18T03:50:13.933Z,3.70
2023-05-18T03:52:44.549Z,4.43
2023-05-18T03:55:12.387Z,3.43
2023-05-18T03:57:40.472Z,3.00
2023-05-18T04:00:13.021Z,3.27
2023-05-18T04:02:46.722Z,3.43
2023-05-18T04:05:18.593Z,2.77
2023-05-18T04:07:47.548Z,5.00
2023-05-18T04:10:17.142Z,2.87
2023-05-18T04:12:44.940Z,3.10
2023-05-18T04:15:14.665Z,2.60
2023-05-18T04:17:45.577Z,3.60
2023-05-18T04:20:14.480Z,3.10
2023-05-18T04:22:46.471Z,3.93
2023-05-18T04:25:15.172Z,5.77
2023-05-18T04:27:45.359Z,5.10
2023-05-18T04:30:15.233Z,2.93
2023-05-18T04:32:43.840Z,3.70
2023-05-18T04:35:12.668Z,3.87
2023-05-18T04:37:41.600Z,5.57
2023-05-18T04:40:14.286Z,4.40
2023-05-18T04:42:45.352Z,3.20
2023-05-18T04:45:17.910Z,3.60
2023-05-18T04:47:47.164Z,3.47
2023-05-18T04:50:16.923Z,4.73
2023-05-18T04:52:48.125Z,4.17
2023-05-18T04:55:23.066Z,3.43
2023-05-18T04:57:53.854Z,3.50
2023-05-18T05:00:24.090Z,4.20
2023-05-18T05:02:52.165Z,3.83
2023-05-18T05:05:20.278Z,4.20
2023-05-18T05:07:47.991Z,3.90
2023-05-18T05:10:15.691Z,3.97
2023-05-18T05:12:43.646Z,3.77
2023-05-18T05:15:12.135Z,3.37
2023-05-18T05:17:41.583Z,4.27
2023-05-18T05:20:10.576Z,4.37
2023-05-18T05:22:38.503Z,4.73
2023-05-18T05:25:10.122Z,5.40
2023-05-18T05:27:39.338Z,5.37
2023-05-18T05:30:08.486Z,4.33
2023-05-18T05:32:37.840Z,6.07
2023-05-18T05:35:09.587Z,4.30
2023-05-18T05:37:37.567Z,4.10
2023-05-18T05:40:07.700Z,4.67
2023-05-18T05:42:41.683Z,4.10
2023-05-18T05:45:10.256Z,6.47
2023-05-18T05:47:45.867Z,5.37
2023-05-18T05:50:15.820Z,5.33
2023-05-18T05:52:44.497Z,3.83
2023-05-18T05:55:12.541Z,4.13
2023-05-18T05:57:42.721Z,3.13
2023-05-18T06:00:12.763Z,4.63
2023-05-18T06:02:49.759Z,4.60
2023-05-18T06:05:26.714Z,4.40
2023-05-18T06:07:56.205Z,4.33
2023-05-18T06:10:24.088Z,3.50
2023-05-18T06:12:52.089Z,3.57
2023-05-18T06:15:21.092Z,4.17
2023-05-18T06:17:49.167Z,5.17
2023-05-18T06:20:17.539Z,4.87
2023-05-18T06:22:46.760Z,2.97
2023-05-18T06:25:24.249Z,3.93
2023-05-18T06:28:24.667Z,4.50
2023-05-18T06:31:01.324Z,4.20
2023-05-18T06:33:32.372Z,4.60
2023-05-18T06:36:00.168Z,3.90
2023-05-18T06:38:29.226Z,3.20
2023-05-18T06:40:57.039Z,4.27
2023-05-18T06:43:26.841Z,4.17
2023-05-18T06:46:04.290Z,3.63
2023-05-18T06:48:39.221Z,3.50
2023-05-18T06:51:07.930Z,4.40
2023-05-18T06:53:36.966Z,4.73
2023-05-18T06:56:05.734Z,4.90
2023-05-18T06:58:34.641Z,5.53
2023-05-18T07:01:05.455Z,4.07
2023-05-18T07:03:33.664Z,4.10
2023-05-18T07:06:01.916Z,3.70
2023-05-18T07:08:29.600Z,3.77
2023-05-18T07:10:59.060Z,3.70
2023-05-18T07:13:26.971Z,4.53
2023-05-18T07:15:54.634Z,3.27
2023-05-18T07:18:22.600Z,3.83
2023-05-18T07:20:50.365Z,3.23
2023-05-18T07:23:18.006Z,4.00
2023-05-18T07:25:45.654Z,5.33
2023-05-18T07:28:15.144Z,3.17
2023-05-18T07:30:42.764Z,3.07
2023-05-18T07:33:10.446Z,2.80
2023-05-18T07:35:38.089Z,3.87
2023-05-18T07:38:05.745Z,4.70
2023-05-18T07:40:33.410Z,3.60
2023-05-18T07:43:01.212Z,3.77
2023-05-18T07:45:30.732Z,3.90
2023-05-18T07:47:58.756Z,4.27
2023-05-18T07:50:26.731Z,3.40
2023-05-18T07:52:54.493Z,3.03
2023-05-18T07:55:22.150Z,3.27
2023-05-18T07:57:49.837Z,2.63
2023-05-18T08:00:19.364Z,3.27
2023-05-18T08:02:48.521Z,4.30
2023-05-18T08:05:16.629Z,5.03
2023-05-18T08:07:44.283Z,4.63
2023-05-18T08:10:12.243Z,4.27
2023-05-18T08:12:39.890Z,3.17
2023-05-18T08:15:09.410Z,3.03
2023-05-18T08:17:37.083Z,3.07
2023-05-18T08:20:08.465Z,2.63
2023-05-18T08:22:36.273Z,2.13
2023-05-18T08:25:04.212Z,2.93
2023-05-18T08:27:31.963Z,3.13
2023-05-18T08:29:59.593Z,3.00
2023-05-18T08:32:27.739Z,3.13
2023-05-18T08:34:55.595Z,2.10
2023-05-18T08:37:29.058Z,3.40
2023-05-18T08:39:56.922Z,2.40
2023-05-18T08:42:48.499Z,2.97
2023-05-18T08:45:23.621Z,3.23
2023-05-18T08:47:51.973Z,3.43
2023-05-18T08:50:24.320Z,3.60
2023-05-18T08:52:57.270Z,2.60
2023-05-18T08:55:25.047Z,3.00
2023-05-18T08:57:56.698Z,2.50
2023-05-18T09:00:24.958Z,3.20
2023-05-18T09:02:53.196Z,2.30
2023-05-18T09:05:21.879Z,2.63
2023-05-18T09:07:51.052Z,3.10
2023-05-18T09:10:20.081Z,1.53
2023-05-18T09:12:48.215Z,3.23
2023-05-18T09:15:17.558Z,3.23
2023-05-18T09:17:45.347Z,2.40
2023-05-18T09:20:13.379Z,2.20
2023-05-18T09:22:41.261Z,2.87
2023-05-18T09:25:10.998Z,2.40
2023-05-18T09:27:40.146Z,2.87
2023-05-18T09:30:11.995Z,2.10
2023-05-18T09:32:40.280Z,2.20
2023-05-18T09:35:09.255Z,1.80
2023-05-18T09:37:37.173Z,4.33
2023-05-18T09:40:06.642Z,1.90
2023-05-18T09:42:38.780Z,3.20
2023-05-18T09:45:17.536Z,2.17
2023-05-18T09:47:45.401Z,2.13
2023-05-18T09:50:14.415Z,2.93
2023-05-18T09:52:43.686Z,2.43
2023-05-18T09:55:11.865Z,2.07
2023-05-18T09:57:41.634Z,2.77
2023-05-18T10:00:12.698Z,2.50
2023-05-18T10:02:42.014Z,2.17
2023-05-18T10:05:20.413Z,2.43
2023-05-18T10:07:48.598Z,2.23
2023-05-18T10:10:20.034Z,4.03
2023-05-18T10:12:48.493Z,1.90
2023-05-18T10:15:19.707Z,2.30
2023-05-18T10:17:49.026Z,2.33
2023-05-18T10:20:19.382Z,1.87
2023-05-18T10:22:49.127Z,3.50
2023-05-18T10:25:20.438Z,2.00
2023-05-18T10:27:50.661Z,3.47
2023-05-18T10:30:21.967Z,2.67
2023-05-18T10:32:50.200Z,2.07
2023-05-18T10:35:19.403Z,4.63
2023-05-18T10:37:48.861Z,1.27
2023-05-18T10:40:18.802Z,2.50
2023-05-18T10:42:47.506Z,2.27
2023-05-18T10:45:16.704Z,4.33
2023-05-18T10:47:45.941Z,2.27
2023-05-18T10:50:14.388Z,3.07
2023-05-18T10:52:42.734Z,1.77
2023-05-18T10:55:10.687Z,2.60
2023-05-18T10:57:41.771Z,2.57
2023-05-18T11:00:10.960Z,2.97
2023-05-18T11:02:42.881Z,1.73
2023-05-18T11:05:13.274Z,2.53
2023-05-18T11:07:41.558Z,3.47
2023-05-18T11:10:11.863Z,1.97
2023-05-18T11:12:41.449Z,2.00
2023-05-18T11:15:10.837Z,1.90
2023-05-18T11:17:38.531Z,1.40
2023-05-18T11:20:15.512Z,2.17
2023-05-18T11:22:48.465Z,1.70
2023-05-18T11:25:43.385Z,1.87
2023-05-18T11:28:13.741Z,1.67
2023-05-18T11:30:52.312Z,1.70
2023-05-18T11:33:25.595Z,2.03
2023-05-18T11:36:03.396Z,2.30
2023-05-18T11:38:48.457Z,1.90
2023-05-18T11:41:33.776Z,1.53
2023-05-18T11:44:09.827Z,1.37
2023-05-18T11:46:37.877Z,1.40
2023-05-18T11:49:06.104Z,2.37
2023-05-18T11:51:35.400Z,2.90
2023-05-18T11:54:04.152Z,2.30
2023-05-18T11:56:33.538Z,1.57
2023-05-18T11:59:13.856Z,2.27
2023-05-18T12:01:42.782Z,2.60
2023-05-18T12:04:11.311Z,1.60
2023-05-18T12:06:40.450Z,3.90
2023-05-18T12:09:09.018Z,2.03
2023-05-18T12:11:37.668Z,2.20
2023-05-18T12:14:06.966Z,1.77
2023-05-18T12:16:37.221Z,1.53
2023-05-18T12:19:05.180Z,2.50
2023-05-18T12:21:37.117Z,1.77
2023-05-18T12:24:06.834Z,2.33
2023-05-18T12:26:34.953Z,2.43
2023-05-18T12:29:02.985Z,2.20
2023-05-18T12:31:31.595Z,1.40
2023-05-18T12:33:59.683Z,2.00
2023-05-18T12:36:27.376Z,1.37
2023-05-18T12:38:55.260Z,1.70
2023-05-18T12:41:26.440Z,2.90
2023-05-18T12:43:54.955Z,2.27
2023-05-18T12:46:24.024Z,1.67
2023-05-18T12:49:01.445Z,2.53
2023-05-18T12:51:35.050Z,3.43
2023-05-18T12:54:03.504Z,2.73
2023-05-18T12:57:01.501Z,3.13
2023-05-18T12:59:29.940Z,2.23
2023-05-18T13:01:59.034Z,1.97
2023-05-18T13:04:34.991Z,2.60
2023-05-18T13:07:02.914Z,1.90
2023-05-18T13:09:30.562Z,2.17
2023-05-18T13:14:38.833Z,1.53
2023-05-18T13:17:06.717Z,3.17
2023-05-18T13:19:36.630Z,2.00
2023-05-18T13:22:04.379Z,2.43
2023-05-18T13:24:32.089Z,1.67
2023-05-18T13:26:59.708Z,1.90
2023-05-18T13:29:28.778Z,2.03
2023-05-18T13:31:56.451Z,3.03
2023-05-18T13:34:24.252Z,2.37
2023-05-18T13:36:52.003Z,2.40
2023-05-18T13:39:19.816Z,2.40
2023-05-18T13:41:47.437Z,1.27
2023-05-18T13:44:16.065Z,3.37
2023-05-18T13:46:45.126Z,1.83
2023-05-18T13:49:13.345Z,3.50
2023-05-18T13:51:41.361Z,2.07
2023-05-18T13:54:09.125Z,2.00
2023-05-18T13:56:36.784Z,1.53
2023-05-18T13:59:04.539Z,1.70
2023-05-18T14:01:32.641Z,2.13
2023-05-18T14:04:01.672Z,1.83
2023-05-18T14:06:29.472Z,1.90
2023-05-18T14:08:57.121Z,3.07
2023-05-18T14:11:24.764Z,1.37
2023-05-18T14:13:52.400Z,2.30
2023-05-18T14:16:20.095Z,1.60
2023-05-18T14:18:47.741Z,3.03
2023-05-18T14:21:16.953Z,1.30
2023-05-18T14:23:44.564Z,1.87
2023-05-18T14:26:12.203Z,2.23
2023-05-18T14:28:39.853Z,1.50
2023-05-18T14:31:07.541Z,2.13
2023-05-18T14:33:35.290Z,1.93
2023-05-18T14:36:03.103Z,1.87
2023-05-18T14:38:32.172Z,1.73
2023-05-18T14:40:59.829Z,2.30
2023-05-18T14:43:27.468Z,2.37
2023-05-18T14:46:07.249Z,3.00
2023-05-18T14:48:36.377Z,2.20
2023-05-18T14:51:04.353Z,1.70
2023-05-18T14:53:33.333Z,2.17
2023-05-18T14:56:04.615Z,2.93
2023-05-18T14:58:32.423Z,1.10
2023-05-18T15:01:00.077Z,1.47
2023-05-18T15:03:28.417Z,1.30
2023-05-18T15:05:56.343Z,1.33
2023-05-18T15:08:24.130Z,1.33
2023-05-18T15:10:53.954Z,1.17
2023-05-18T15:13:21.913Z,1.57
2023-05-18T15:15:50.124Z,1.50
2023-05-18T15:18:18.487Z,1.40
2023-05-18T15:20:46.764Z,1.90
2023-05-18T15:23:14.686Z,2.30
2023-05-18T15:25:42.445Z,1.77
2023-05-18T15:28:12.679Z,2.07
2023-05-18T15:30:40.461Z,1.17
2023-05-18T15:33:08.253Z,2.13
2023-05-18T15:35:36.375Z,3.00
2023-05-18T15:38:04.144Z,2.53
2023-05-18T15:40:31.968Z,1.30
2023-05-18T15:42:59.933Z,2.50
2023-05-18T15:45:29.080Z,1.80
2023-05-18T15:47:56.923Z,3.27
2023-05-18T15:50:24.656Z,2.10
2023-05-18T15:52:52.889Z,2.63
2023-05-18T15:55:20.942Z,1.70
2023-05-18T15:57:48.604Z,0.80
2023-05-18T16:00:16.940Z,1.87
2023-05-18T16:02:46.213Z,1.20
2023-05-18T16:05:14.128Z,1.47
2023-05-18T16:07:42.258Z,1.20
2023-05-18T16:10:10.358Z,1.73
2023-05-18T16:12:38.101Z,1.77
2023-05-18T16:15:06.722Z,2.27
2023-05-18T16:17:34.437Z,1.50
2023-05-18T16:20:04.113Z,1.43
2023-05-18T16:22:31.974Z,1.60
2023-05-18T16:24:59.799Z,1.63
2023-05-18T16:27:27.578Z,1.90
2023-05-18T16:29:55.265Z,1.80
2023-05-18T16:32:24.539Z,1.33
2023-05-18T16:34:52.794Z,1.63
2023-05-18T16:37:21.957Z,2.30
2023-05-18T16:39:49.635Z,3.17
2023-05-18T16:42:18.460Z,1.60
2023-05-18T16:44:46.107Z,2.40
2023-05-18T16:47:14.060Z,2.57
2023-05-18T16:49:43.973Z,1.83
2023-05-18T16:52:12.113Z,1.50
2023-05-18T16:54:41.103Z,1.97
2023-05-18T16:57:13.003Z,2.10
2023-05-18T16:59:40.715Z,1.70
2023-05-18T17:02:10.307Z,2.33
2023-05-18T17:04:40.600Z,1.77
2023-05-18T17:07:09.911Z,1.97
2023-05-18T17:09:40.106Z,2.27
2023-05-18T17:12:10.302Z,3.40
2023-05-18T17:14:38.739Z,2.43
2023-05-18T17:17:07.065Z,2.03
2023-05-18T17:19:35.705Z,2.47
2023-05-18T17:22:03.571Z,1.67
2023-05-18T17:24:31.524Z,1.90
2023-05-18T17:26:59.210Z,2.37
2023-05-18T17:29:29.192Z,1.87
2023-05-18T17:31:57.098Z,1.37
2023-05-18T17:34:26.631Z,1.73
2023-05-18T17:36:54.922Z,1.73
2023-05-18T17:39:22.707Z,2.20
2023-05-18T17:41:51.496Z,2.07
2023-05-18T17:44:19.580Z,2.00
2023-05-18T17:46:48.946Z,2.33
2023-05-18T17:49:16.821Z,1.80
2023-05-18T17:51:44.749Z,2.10
2023-05-18T17:54:12.906Z,2.27
2023-05-18T17:56:40.835Z,2.53
2023-05-18T17:59:08.699Z,8.13
2023-05-18T18:01:36.771Z,4.83
2023-05-18T18:04:06.423Z,3.07
2023-05-18T18:06:36.068Z,2.47
2023-05-18T18:09:04.853Z,2.90
2023-05-18T18:11:32.844Z,2.83
2023-05-18T18:14:02.115Z,1.83
2023-05-18T18:16:30.049Z,1.83
2023-05-18T18:18:58.267Z,1.40
2023-05-18T18:21:27.386Z,2.00
2023-05-18T18:23:55.018Z,3.47
2023-05-18T18:26:22.859Z,3.37
2023-05-18T18:28:51.181Z,2.77
2023-05-18T18:31:20.816Z,2.37
2023-05-18T18:33:50.316Z,4.43
2023-05-18T18:36:18.615Z,3.13
2023-05-18T18:38:47.748Z,1.73
2023-05-18T18:41:17.292Z,2.30
2023-05-18T18:43:45.640Z,2.13
2023-05-18T18:46:13.729Z,2.17
2023-05-18T18:48:41.736Z,1.23
2023-05-18T18:51:09.359Z,1.73
2023-05-18T18:53:37.127Z,3.80
2023-05-18T18:56:06.409Z,1.90
2023-05-18T18:58:34.069Z,2.50
2023-05-18T19:01:01.677Z,3.50
2023-05-18T19:03:29.431Z,2.53
2023-05-18T19:05:57.061Z,3.50
2023-05-18T19:08:24.750Z,2.70
2023-05-18T19:10:52.443Z,2.07
2023-05-18T19:13:21.705Z,1.57
2023-05-18T19:15:50.332Z,3.40
2023-05-18T19:18:18.079Z,2.10
2023-05-18T19:20:45.723Z,2.17
2023-05-18T19:23:13.373Z,1.60
2023-05-18T19:25:41.172Z,2.90
2023-05-18T19:28:08.806Z,1.40
2023-05-18T19:30:37.775Z,1.67
2023-05-18T19:33:05.512Z,1.50
2023-05-18T19:35:33.538Z,1.17
2023-05-18T19:38:02.158Z,1.87
2023-05-18T19:40:30.088Z,1.67
2023-05-18T19:42:59.633Z,1.97
2023-05-18T19:45:27.407Z,1.93
2023-05-18T19:47:56.532Z,1.23
2023-05-18T19:50:24.644Z,1.57
2023-05-18T19:52:52.310Z,1.57
2023-05-18T19:55:21.148Z,1.20
2023-05-18T19:57:49.007Z,2.27
2023-05-18T20:00:17.325Z,1.33
2023-05-18T20:02:45.043Z,1.30
2023-05-18T20:05:18.753Z,2.03
2023-05-18T20:07:46.727Z,0.97
2023-05-18T20:10:14.405Z,0.80
2023-05-18T20:12:42.044Z,1.40
2023-05-18T20:15:10.321Z,1.00
2023-05-18T20:17:38.095Z,1.17
2023-05-18T20:20:06.291Z,2.63
2023-05-18T20:22:35.370Z,1.57
2023-05-18T20:25:05.376Z,1.50
2023-05-18T20:27:33.108Z,1.40
2023-05-18T20:30:00.880Z,1.63
2023-05-18T20:32:28.882Z,1.10
2023-05-18T20:34:56.567Z,2.10
2023-05-18T20:37:26.086Z,1.27
2023-05-18T20:39:57.296Z,3.57
2023-05-18T20:42:31.068Z,1.83
2023-05-18T20:44:59.050Z,1.77
2023-05-18T20:47:26.714Z,1.43
2023-05-18T20:49:54.488Z,1.97
2023-05-18T20:52:22.126Z,1.10
2023-05-18T20:54:49.982Z,1.53
2023-05-18T20:57:18.998Z,1.10
2023-05-18T20:59:47.350Z,1.87
2023-05-18T21:02:16.882Z,1.43
2023-05-18T21:04:44.642Z,1.60
2023-05-18T21:07:12.254Z,1.27
2023-05-18T21:09:40.081Z,1.00
2023-05-18T21:12:08.315Z,2.27
2023-05-18T21:14:37.432Z,1.50
2023-05-18T21:17:06.345Z,1.47
2023-05-18T21:19:34.012Z,1.47
2023-05-18T21:22:01.874Z,1.30
2023-05-18T21:24:29.800Z,1.90
2023-05-18T21:26:57.566Z,1.47
2023-05-18T21:29:25.200Z,1.10
2023-05-18T21:31:54.225Z,1.63
2023-05-18T21:34:21.903Z,1.03
2023-05-18T21:36:49.798Z,1.10
2023-05-18T21:39:17.429Z,1.80
2023-05-18T21:41:45.274Z,1.27
2023-05-18T21:44:12.924Z,1.90
2023-05-18T21:46:40.962Z,1.00
2023-05-18T21:49:09.991Z,1.37
2023-05-18T21:51:37.762Z,1.30
2023-05-18T21:54:05.509Z,0.90
2023-05-18T21:56:34.602Z,1.10
2023-05-18T21:59:02.265Z,1.17
2023-05-18T22:01:30.082Z,1.17
2023-05-18T22:03:57.827Z,2.20
2023-05-18T22:06:26.974Z,1.63
2023-05-18T22:08:54.611Z,1.30
2023-05-18T22:11:22.885Z,1.27
2023-05-18T22:13:50.854Z,0.53
2023-05-18T22:16:18.683Z,0.77
2023-05-18T22:18:46.486Z,1.37
2023-05-18T22:21:14.214Z,1.67
2023-05-18T22:23:43.342Z,0.87
2023-05-18T22:26:12.106Z,1.90
2023-05-18T22:28:40.173Z,1.07
2023-05-18T22:31:07.792Z,2.63
2023-05-18T22:33:35.416Z,1.57
2023-05-18T22:36:03.222Z,1.70
2023-05-18T22:38:30.982Z,1.40
2023-05-18T22:40:59.926Z,1.47
2023-05-18T22:43:29.093Z,2.03
2023-05-18T22:45:56.762Z,1.60
2023-05-18T22:48:25.375Z,1.67
2023-05-18T22:50:53.044Z,0.87
2023-05-18T22:53:20.717Z,2.00
2023-05-18T22:55:48.388Z,2.53
2023-05-18T22:58:17.781Z,0.93
2023-05-18T23:00:45.408Z,1.30
2023-05-18T23:03:13.301Z,2.40
2023-05-18T23:05:41.508Z,2.47
2023-05-18T23:08:09.488Z,1.63
2023-05-18T23:10:37.585Z,2.30
2023-05-18T23:13:05.251Z,1.13
2023-05-18T23:15:34.317Z,1.90
2023-05-18T23:18:02.030Z,2.30
2023-05-18T23:20:34.430Z,2.03
2023-05-18T23:23:02.154Z,2.30
2023-05-18T23:25:30.258Z,2.97
2023-05-18T23:27:57.928Z,2.13
2023-05-18T23:30:26.034Z,2.57
2023-05-18T23:32:56.443Z,3.93
2023-05-18T23:35:24.833Z,3.80
2023-05-18T23:37:54.878Z,2.30
2023-05-18T23:40:23.545Z,2.10
2023-05-18T23:42:51.979Z,2.60
2023-05-18T23:45:20.366Z,1.93
2023-05-18T23:47:48.750Z,1.90
2023-05-18T23:50:18.632Z,2.77
2023-05-18T23:52:47.784Z,2.33
2023-05-18T23:55:16.077Z,1.90
2023-05-18T23:57:44.636Z,2.43
